Time;durP1;ratioP1;P1;durP2;ratioP2;P2;SDS_P1;SDS_P2;PMS_P1;PMS_P2;Temp;Humidity;BMP_temperature;BMP_pressure;BME280_temperature;BME280_humidity;BME280_pressure;Samples;Min_cycle;Max_cycle;Signal;HPM_P1;HPM_P2
2021/05/13 00:00:21;;;;;;;41.53;21.67;;;;;;;6.26;100.00;96077.94;5005764;28;20054;-62
2021/05/13 00:02:46;;;;;;;35.17;19.42;;;;;;;6.24;100.00;96078.28;5007678;28;20096;-62
2021/05/13 00:05:13;;;;;;;17.80;10.60;;;;;;;6.21;100.00;96078.22;5001777;28;20052;-61
2021/05/13 00:07:38;;;;;;;20.90;10.07;;;;;;;6.23;100.00;96074.00;5005539;28;20429;-61
2021/05/13 00:10:09;;;;;;;16.80;10.07;;;;;;;6.33;100.00;96075.38;5000491;28;20046;-60
2021/05/13 00:12:42;;;;;;;15.85;9.00;;;;;;;6.47;100.00;96075.72;5004246;28;20050;-61
2021/05/13 00:15:14;;;;;;;18.83;9.40;;;;;;;6.57;100.00;96071.66;5000422;28;20502;-62
2021/05/13 00:17:40;;;;;;;16.88;10.05;;;;;;;6.52;100.00;96066.50;5002062;28;20742;-63
2021/05/13 00:20:11;;;;;;;15.63;9.20;;;;;;;6.68;100.00;96067.22;4990590;28;20049;-63
2021/05/13 00:22:37;;;;;;;12.57;8.23;;;;;;;6.81;100.00;96067.09;5002076;28;20396;-63
2021/05/13 00:25:04;;;;;;;13.10;7.80;;;;;;;6.88;100.00;96061.81;5001576;28;20068;-63
2021/05/13 00:27:30;;;;;;;14.35;7.70;;;;;;;6.95;100.00;96055.69;5012574;28;20295;-62
2021/05/13 00:29:55;;;;;;;11.88;7.35;;;;;;;6.97;100.00;96067.00;5025764;28;20034;-63
2021/05/13 00:32:20;;;;;;;10.55;7.07;;;;;;;6.83;100.00;96059.38;4990036;28;20057;-62
2021/05/13 00:34:46;;;;;;;10.13;6.75;;;;;;;6.70;99.75;96069.59;5005588;28;20521;-62
2021/05/13 00:37:11;;;;;;;10.07;7.32;;;;;;;6.81;99.90;96062.44;5002801;28;20045;-62
2021/05/13 00:39:37;;;;;;;12.55;7.22;;;;;;;6.89;99.03;96060.66;5009911;28;20239;-63
2021/05/13 00:42:02;;;;;;;8.77;6.13;;;;;;;6.82;98.90;96068.66;5004152;28;20073;-62
2021/05/13 00:44:28;;;;;;;10.52;7.05;;;;;;;6.69;98.21;96065.28;4998609;28;20121;-62
2021/05/13 00:46:53;;;;;;;12.65;7.80;;;;;;;6.57;98.31;96060.78;5003714;28;20038;-63
2021/05/13 00:49:20;;;;;;;9.18;6.60;;;;;;;6.53;98.74;96057.16;4999220;28;20042;-62
2021/05/13 00:51:46;;;;;;;12.18;7.40;;;;;;;6.49;99.18;96056.31;4993965;28;20046;-62
2021/05/13 00:54:12;;;;;;;11.13;7.28;;;;;;;6.45;99.27;96056.25;4998190;28;20048;-63
2021/05/13 00:56:38;;;;;;;13.55;7.40;;;;;;;6.47;99.17;96053.94;5019010;28;20517;-65
2021/05/13 00:59:09;;;;;;;12.95;7.50;;;;;;;6.59;99.52;96049.50;4999713;28;20156;-64
2021/05/13 01:04:13;;;;;;;14.23;8.18;;;;;;;6.98;98.84;96049.53;4996528;28;20065;-63
2021/05/13 01:06:39;;;;;;;12.10;8.43;;;;;;;7.03;98.49;96050.03;5002489;28;20041;-63
2021/05/13 01:09:08;;;;;;;13.07;7.55;;;;;;;7.19;97.49;96049.97;4997664;28;20044;-62
2021/05/13 01:11:42;;;;;;;14.20;8.10;;;;;;;7.23;96.56;96044.56;5002061;28;20042;-63
2021/05/13 01:16:50;;;;;;;22.40;9.45;;;;;;;7.13;96.73;96045.97;5001279;28;20049;-63
2021/05/13 01:19:17;;;;;;;13.57;8.30;;;;;;;7.21;97.23;96041.44;4996579;28;20665;-62
2021/05/13 01:21:45;;;;;;;16.15;8.25;;;;;;;7.14;97.56;96039.34;4993144;28;20041;-61
2021/05/13 01:24:12;;;;;;;23.20;9.40;;;;;;;6.94;97.25;96035.06;4997842;28;20077;-62
2021/05/13 01:26:38;;;;;;;15.77;8.82;;;;;;;6.84;97.91;96037.22;5001919;28;20045;-62
2021/05/13 01:29:04;;;;;;;14.60;8.40;;;;;;;6.84;97.70;96039.16;4990783;28;20371;-62
2021/05/13 01:31:30;;;;;;;28.92;9.57;;;;;;;6.82;98.32;96030.56;5002281;28;20100;-62
2021/05/13 01:33:55;;;;;;;13.93;9.05;;;;;;;6.80;98.03;96028.19;5016094;28;20049;-62
2021/05/13 01:36:21;;;;;;;14.50;8.77;;;;;;;6.74;98.33;96032.34;4996253;28;21058;-61
2021/05/13 01:38:46;;;;;;;21.23;9.32;;;;;;;6.53;98.81;96032.69;5001160;28;20057;-64
2021/05/13 01:41:12;;;;;;;21.23;9.25;;;;;;;6.33;100.00;96031.88;4998238;28;20073;-62
2021/05/13 01:43:37;;;;;;;17.45;9.38;;;;;;;6.27;100.00;96033.31;4992579;28;20051;-62
2021/05/13 01:46:02;;;;;;;15.75;9.23;;;;;;;6.37;100.00;96042.84;5000804;28;20044;-60
2021/05/13 01:48:29;;;;;;;16.58;9.35;;;;;;;6.58;100.00;96035.13;4998405;28;20046;-64
2021/05/13 01:50:55;;;;;;;15.40;8.85;;;;;;;6.75;100.00;96042.06;5002821;28;20395;-63
2021/05/13 01:53:22;;;;;;;17.98;9.48;;;;;;;6.86;100.00;96036.84;4990264;28;20045;-63
2021/05/13 01:55:48;;;;;;;19.45;9.50;;;;;;;6.98;100.00;96041.38;4999962;28;20069;-61
2021/05/13 01:58:14;;;;;;;13.77;8.85;;;;;;;6.97;99.45;96037.06;4995102;28;20498;-60
2021/05/13 02:00:43;;;;;;;14.30;8.45;;;;;;;7.05;99.45;96039.56;5002140;28;20050;-63
2021/05/13 02:03:09;;;;;;;13.57;8.00;;;;;;;7.11;99.09;96033.84;4996096;28;20658;-63
2021/05/13 02:05:34;;;;;;;15.82;8.30;;;;;;;7.25;97.68;96031.38;5002366;28;20115;-63
2021/05/13 02:08:00;;;;;;;12.68;7.93;;;;;;;7.39;96.96;96034.38;5026270;28;20104;-61
2021/05/13 02:10:26;;;;;;;12.60;7.38;;;;;;;7.43;97.43;96027.03;5007471;28;20045;-60
2021/05/13 02:12:51;;;;;;;14.02;7.57;;;;;;;7.54;96.23;96027.22;5008063;23;20054;-58
2021/05/13 02:15:19;;;;;;;13.00;7.88;;;;;;;7.56;96.99;96027.66;4964164;28;20043;-59
2021/05/13 02:17:45;;;;;;;14.18;8.13;;;;;;;7.63;96.15;96018.81;4979614;28;20044;-59
2021/05/13 02:20:14;;;;;;;14.48;8.60;;;;;;;7.69;95.96;96025.53;4975334;28;20073;-59
2021/05/13 02:22:40;;;;;;;12.02;7.95;;;;;;;7.64;96.01;96023.13;4980983;28;20041;-60
2021/05/13 02:25:07;;;;;;;12.82;7.72;;;;;;;7.71;95.89;96017.00;4977363;28;20073;-63
2021/05/13 02:27:33;;;;;;;10.90;7.78;;;;;;;7.80;96.09;96012.09;4987831;28;20438;-61
2021/05/13 02:29:59;;;;;;;11.98;7.53;;;;;;;7.92;95.75;96017.31;4984353;28;20495;-56
2021/05/13 02:32:24;;;;;;;10.55;6.68;;;;;;;7.92;94.84;96016.53;4977217;28;20068;-56
2021/05/13 02:34:50;;;;;;;11.95;7.63;;;;;;;7.51;95.19;96017.06;4980659;28;20371;-55
2021/05/13 02:37:15;;;;;;;11.10;7.57;;;;;;;7.30;97.38;96016.69;4976823;28;20499;-59
2021/05/13 02:39:41;;;;;;;11.63;7.97;;;;;;;7.51;97.51;96017.06;4995838;28;20076;-55
2021/05/13 02:42:06;;;;;;;12.18;7.75;;;;;;;7.62;96.70;96009.84;4974777;28;20495;-56
2021/05/13 02:44:32;;;;;;;10.25;7.63;;;;;;;7.61;96.62;96012.94;4979206;28;20511;-63
2021/05/13 02:46:57;;;;;;;12.65;8.02;;;;;;;7.52;96.51;96015.91;4982692;28;20124;-63
2021/05/13 02:49:23;;;;;;;10.77;7.68;;;;;;;7.56;96.86;96013.22;4981289;28;20132;-54
2021/05/13 02:51:48;;;;;;;10.15;7.57;;;;;;;7.57;96.57;96004.69;4980478;28;20079;-59
2021/05/13 02:54:14;;;;;;;12.23;7.75;;;;;;;7.60;96.90;96009.44;4975720;28;20070;-58
2021/05/13 02:56:39;;;;;;;10.98;8.05;;;;;;;7.37;96.23;96003.97;4981911;28;20041;-55
2021/05/13 02:59:05;;;;;;;11.90;7.88;;;;;;;7.12;97.21;96006.25;4974375;28;20046;-64
2021/05/13 03:01:30;;;;;;;11.05;7.40;;;;;;;7.17;97.12;96007.91;4979321;28;20041;-58
2021/05/13 03:03:58;;;;;;;12.80;8.63;;;;;;;7.07;97.27;96006.53;4980393;28;20046;-55
2021/05/13 03:06:25;;;;;;;14.45;8.23;;;;;;;6.85;98.42;96003.41;4978793;28;20046;-58
2021/05/13 03:08:55;;;;;;;12.75;9.02;;;;;;;6.79;99.03;96004.84;4982644;28;20034;-59
2021/05/13 03:11:21;;;;;;;;;;;;;;;6.92;99.23;95997.31;4979670;28;20498;-61
2021/05/13 03:13:50;;;;;;;14.63;9.32;;;;;;;6.91;99.16;96001.19;4983951;28;19918;-57
2021/05/13 03:16:15;;;;;;;11.68;8.48;;;;;;;6.84;99.27;96001.03;4981093;28;20042;-58
2021/05/13 03:18:44;;;;;;;13.75;8.75;;;;;;;6.75;99.44;96001.25;4983524;28;20043;-58
2021/05/13 03:21:35;;;;;;;16.98;9.40;;;;;;;6.64;99.66;95992.09;4979169;28;20038;-56
2021/05/13 03:24:06;;;;;;;15.00;8.95;;;;;;;6.35;100.00;95999.66;4983292;28;20050;-55
2021/05/13 03:26:41;;;;;;;23.73;10.77;;;;;;;6.19;100.00;95998.94;4983596;28;20096;-58
2021/05/13 03:29:06;;;;;;;23.52;11.45;;;;;;;6.12;100.00;95989.47;4986298;28;20478;-55
2021/05/13 03:31:33;;;;;;;30.35;11.95;;;;;;;6.10;100.00;95993.69;4982853;28;20126;-58
2021/05/13 03:33:59;;;;;;;25.00;12.52;;;;;;;6.08;100.00;95990.53;4984092;28;20050;-59
2021/05/13 03:36:25;;;;;;;26.77;12.82;;;;;;;6.02;100.00;95992.75;4977966;28;20489;-57
2021/05/13 03:38:50;;;;;;;30.95;14.48;;;;;;;5.86;100.00;95989.25;4984016;28;20046;-57
2021/05/13 03:41:16;;;;;;;34.63;15.18;;;;;;;5.83;100.00;95992.66;4979207;28;20522;-60
2021/05/13 03:43:41;;;;;;;39.33;17.65;;;;;;;5.88;100.00;95995.09;4983261;28;20085;-56
2021/05/13 03:46:07;;;;;;;32.22;16.17;;;;;;;5.96;100.00;95999.59;4978277;28;20076;-56
2021/05/13 03:48:32;;;;;;;42.55;18.48;;;;;;;6.07;100.00;95999.84;4974479;28;20133;-61
2021/05/13 03:50:58;;;;;;;48.40;20.58;;;;;;;6.18;100.00;95994.66;4980987;28;20491;-59
2021/05/13 03:53:23;;;;;;;50.15;20.30;;;;;;;6.28;100.00;95997.59;4976465;28;20455;-59
2021/05/13 03:55:51;;;;;;;66.18;21.20;;;;;;;6.39;100.00;95992.38;4984002;28;20057;-58
2021/05/13 03:58:22;;;;;;;45.17;20.35;;;;;;;6.47;100.00;95988.66;4977101;28;20491;-59
2021/05/13 04:01:04;;;;;;;50.38;20.45;;;;;;;6.54;100.00;95993.47;4985177;28;20065;-62
2021/05/13 04:03:29;;;;;;;53.60;21.15;;;;;;;6.60;100.00;95983.09;4985544;28;20057;-61
2021/05/13 04:05:54;;;;;;;53.88;21.20;;;;;;;6.65;100.00;95994.47;5003863;28;20041;-57
2021/05/13 04:08:20;;;;;;;64.53;20.95;;;;;;;6.60;100.00;95988.53;4980243;28;20137;-55
2021/05/13 04:10:46;;;;;;;54.75;20.67;;;;;;;6.60;100.00;95983.84;4983343;28;20046;-60
2021/05/13 04:13:13;;;;;;;56.15;23.05;;;;;;;6.63;100.00;95994.03;4976431;28;20042;-59
2021/05/13 04:15:42;;;;;;;53.08;20.80;;;;;;;6.73;100.00;95994.59;4980742;28;20133;-58
2021/05/13 04:18:07;;;;;;;56.85;21.50;;;;;;;6.82;100.00;95989.72;4978064;28;20052;-57
2021/05/13 04:20:32;;;;;;;51.38;21.13;;;;;;;6.94;100.00;95994.25;4982784;28;20054;-61
2021/05/13 04:22:58;;;;;;;49.72;19.15;;;;;;;6.99;100.00;95993.94;4973344;28;20077;-56
2021/05/13 04:25:23;;;;;;;39.67;18.42;;;;;;;7.06;100.00;95997.59;4976467;28;20076;-59
2021/05/13 04:27:49;;;;;;;40.33;16.85;;;;;;;7.10;100.00;95996.88;4981046;28;20080;-61
2021/05/13 04:30:15;;;;;;;33.92;16.15;;;;;;;7.06;100.00;95994.88;4978397;28;20050;-59
2021/05/13 04:32:40;;;;;;;30.70;14.00;;;;;;;7.12;100.00;95991.84;4982896;28;20554;-58
2021/05/13 04:35:06;;;;;;;36.20;15.93;;;;;;;7.30;100.00;95990.22;4978632;28;20120;-55
2021/05/13 04:37:32;;;;;;;37.30;15.98;;;;;;;7.43;100.00;95988.88;4974890;28;20043;-60
2021/05/13 04:39:57;;;;;;;28.67;14.18;;;;;;;7.52;100.00;95990.59;4968606;28;20059;-62
2021/05/13 04:42:22;;;;;;;28.23;13.20;;;;;;;7.45;100.00;95991.25;4968610;28;20912;-57
2021/05/13 04:44:48;;;;;;;21.60;12.80;;;;;;;7.54;100.00;95989.06;4981193;28;20042;-56
2021/05/13 04:47:25;;;;;;;26.25;13.10;;;;;;;7.69;100.00;95992.84;4977540;28;20053;-61
2021/05/13 04:49:52;;;;;;;25.95;12.85;;;;;;;7.83;100.00;95986.81;4983242;28;20068;-58
2021/05/13 04:52:21;;;;;;;35.97;14.13;;;;;;;7.75;100.00;95987.84;4976122;28;20046;-58
2021/05/13 04:54:54;;;;;;;28.10;13.68;;;;;;;7.89;100.00;95979.13;4981923;28;20038;-57
2021/05/13 04:57:20;;;;;;;26.15;13.43;;;;;;;8.00;99.91;95983.56;4977807;28;20046;-59
2021/05/13 04:59:46;;;;;;;28.98;13.93;;;;;;;8.11;100.00;95982.94;4981037;28;20097;-61
2021/05/13 05:02:12;;;;;;;28.80;13.88;;;;;;;8.06;99.48;95994.16;4958841;28;20061;-58
2021/05/13 05:04:37;;;;;;;33.35;14.35;;;;;;;8.12;99.23;95988.03;4982844;28;20045;-55
2021/05/13 05:07:03;;;;;;;26.85;14.35;;;;;;;8.33;98.55;95987.53;4979009;28;20054;-65
2021/05/13 05:09:28;;;;;;;26.17;13.20;;;;;;;8.50;97.88;95986.25;4981360;28;20069;-58
2021/05/13 05:11:54;;;;;;;27.40;12.80;;;;;;;8.61;96.83;95980.91;4982223;28;20046;-60
2021/05/13 05:14:19;;;;;;;23.05;12.50;;;;;;;8.68;96.43;95980.19;4968006;28;20050;-59
2021/05/13 05:16:44;;;;;;;25.75;12.73;;;;;;;8.71;96.41;95984.91;4982099;28;20112;-60
2021/05/13 05:19:10;;;;;;;25.00;13.18;;;;;;;8.54;96.24;95981.59;4977239;28;20882;-60
2021/05/13 05:21:36;;;;;;;25.88;14.00;;;;;;;8.65;95.90;95981.72;4982808;28;20507;-55
2021/05/13 05:24:01;;;;;;;21.67;12.38;;;;;;;8.80;96.24;95978.03;4980362;28;20038;-57
2021/05/13 05:26:27;;;;;;;25.48;15.25;;;;;;;8.94;95.06;95979.34;4972375;28;20514;-58
2021/05/13 05:28:52;;;;;;;22.30;12.75;;;;;;;9.00;94.66;95975.09;4968999;28;20050;-58
2021/05/13 05:31:18;;;;;;;21.42;12.82;;;;;;;9.03;93.52;95976.31;4976978;28;20042;-57
2021/05/13 05:33:43;;;;;;;21.55;11.98;;;;;;;8.96;93.84;95971.56;4982489;28;20038;-56
2021/05/13 05:36:09;;;;;;;19.63;13.02;;;;;;;9.29;93.58;95978.13;4977632;28;20046;-57
2021/05/13 05:38:34;;;;;;;23.13;12.38;;;;;;;9.47;91.04;95979.09;4982117;28;20043;-62
2021/05/13 05:41:00;;;;;;;20.73;12.60;;;;;;;9.17;93.15;95977.25;4973122;28;20042;-55
2021/05/13 05:43:25;;;;;;;21.13;12.85;;;;;;;9.62;91.72;95969.06;4968448;28;20141;-57
2021/05/13 05:45:51;;;;;;;20.40;12.13;;;;;;;9.78;91.45;95974.28;4981850;28;20046;-60
2021/05/13 05:48:16;;;;;;;20.02;12.38;;;;;;;10.63;89.85;95965.03;4980202;28;20049;-64
2021/05/13 05:50:43;;;;;;;20.88;10.90;;;;;;;11.42;82.54;95961.72;4994543;28;20076;-61
2021/05/13 05:53:10;;;;;;;16.75;10.80;;;;;;;11.41;83.05;95969.16;4988704;28;20472;-56
2021/05/13 05:55:37;;;;;;;16.98;10.68;;;;;;;11.51;81.83;95956.66;4992781;28;20038;-61
2021/05/13 05:58:03;;;;;;;13.95;9.70;;;;;;;11.94;80.17;95958.59;4982460;28;20042;-63
2021/05/13 06:00:28;;;;;;;13.43;9.10;;;;;;;12.41;76.83;95953.84;4980575;28;20398;-58
2021/05/13 06:02:54;;;;;;;15.05;8.90;;;;;;;12.86;74.06;95954.06;4979290;28;20038;-56
2021/05/13 06:05:20;;;;;;;12.85;8.77;;;;;;;13.10;71.70;95955.09;4976892;28;20042;-58
2021/05/13 06:07:46;;;;;;;12.00;8.15;;;;;;;13.00;72.10;95947.72;4981587;28;20133;-60
2021/05/13 06:10:14;;;;;;;11.55;8.35;;;;;;;12.87;73.22;95949.34;4975588;28;20116;-60
2021/05/13 06:12:42;;;;;;;17.05;9.38;;;;;;;12.41;75.15;95951.88;4978396;28;20042;-58
2021/05/13 06:15:15;;;;;;;12.82;8.23;;;;;;;12.31;74.06;95951.91;4968480;28;20109;-62
2021/05/13 06:17:41;;;;;;;11.55;7.50;;;;;;;12.18;73.61;95952.31;4980452;28;20038;-57
2021/05/13 06:20:15;;;;;;;13.82;8.20;;;;;;;11.90;75.43;95953.13;4969033;28;20145;-64
2021/05/13 06:22:40;;;;;;;19.33;9.68;;;;;;;11.72;76.65;95960.56;4980350;28;20046;-59
2021/05/13 06:25:06;;;;;;;16.80;8.82;;;;;;;11.45;77.04;95956.25;4977666;28;20047;-62
2021/05/13 06:27:32;;;;;;;17.60;9.18;;;;;;;11.47;77.60;95947.63;4980746;28;20054;-62
2021/05/13 06:29:57;;;;;;;14.30;10.13;;;;;;;10.87;80.71;95954.56;4988600;28;20104;-62
2021/05/13 06:32:23;;;;;;;12.98;9.02;;;;;;;11.03;79.54;95949.50;4975703;28;20125;-58
2021/05/13 06:34:48;;;;;;;14.43;8.77;;;;;;;11.29;79.03;95944.88;4978079;28;20534;-59
2021/05/13 06:37:14;;;;;;;15.38;9.25;;;;;;;11.45;78.18;95949.97;4975732;28;20077;-60
2021/05/13 06:39:39;;;;;;;14.75;9.75;;;;;;;11.83;76.69;95942.16;4980848;28;20697;-59
2021/05/13 06:42:05;;;;;;;13.07;8.65;;;;;;;11.94;75.72;95947.63;4975760;28;20046;-65
2021/05/13 06:44:31;;;;;;;17.98;8.73;;;;;;;11.65;76.08;95945.69;4979787;28;20049;-62
2021/05/13 06:46:57;;;;;;;15.00;9.52;;;;;;;11.55;76.55;95940.19;4980430;28;20041;-61
2021/05/13 06:49:23;;;;;;;15.13;8.95;;;;;;;11.28;77.69;95948.78;4963942;28;20592;-61
2021/05/13 06:51:48;;;;;;;14.55;9.13;;;;;;;11.23;78.82;95947.19;4980749;28;20062;-56
2021/05/13 06:54:14;;;;;;;13.43;8.77;;;;;;;11.34;78.26;95955.44;4976486;28;20058;-63
2021/05/13 06:56:40;;;;;;;12.27;7.72;;;;;;;11.74;75.06;95961.75;4980208;28;20073;-58
2021/05/13 06:59:07;;;;;;;14.15;8.75;;;;;;;11.67;73.56;95959.78;4972282;28;20380;-58
2021/05/13 07:01:34;;;;;;;15.38;8.52;;;;;;;11.82;73.88;95963.28;4977993;28;20042;-61
2021/05/13 07:03:59;;;;;;;11.68;8.40;;;;;;;12.21;73.06;95964.47;4980426;28;20046;-56
2021/05/13 07:06:25;;;;;;;13.73;8.45;;;;;;;12.88;71.29;95951.69;4971760;28;20449;-61
2021/05/13 07:08:50;;;;;;;14.30;8.38;;;;;;;13.39;69.69;95957.72;4979418;28;20057;-61
2021/05/13 07:11:15;;;;;;;14.00;8.10;;;;;;;13.88;67.03;95955.00;4975200;28;20053;-62
2021/05/13 07:13:41;;;;;;;12.48;8.25;;;;;;;14.49;64.36;95952.41;4978378;28;20515;-59
2021/05/13 07:16:06;;;;;;;12.13;8.25;;;;;;;14.27;63.73;95951.88;4974342;28;20049;-56
2021/05/13 07:18:32;;;;;;;13.25;8.82;;;;;;;13.29;67.89;95953.03;4980058;28;20042;-57
2021/05/13 07:20:57;;;;;;;16.00;8.57;;;;;;;13.00;69.24;95954.00;4962876;28;20125;-60
2021/05/13 07:23:23;;;;;;;13.88;8.43;;;;;;;13.49;67.52;95951.38;4968649;28;20251;-58
2021/05/13 07:25:48;;;;;;;14.55;8.57;;;;;;;13.37;68.51;95949.88;4975645;28;20166;-57
2021/05/13 07:28:14;;;;;;;13.48;7.35;;;;;;;14.83;65.36;95954.44;4969589;28;20137;-60
2021/05/13 07:30:42;;;;;;;12.70;7.90;;;;;;;15.64;59.32;95958.44;4980684;28;20039;-59
2021/05/13 07:33:08;;;;;;;12.25;7.13;;;;;;;16.54;56.91;95951.41;4974806;28;20069;-61
2021/05/13 07:35:34;;;;;;;10.50;6.45;;;;;;;16.94;56.36;95948.69;4980444;28;20106;-62
2021/05/13 07:37:59;;;;;;;11.27;7.50;;;;;;;17.52;54.35;95943.47;4978188;28;20096;-60
2021/05/13 07:40:27;;;;;;;11.82;7.03;;;;;;;17.48;54.31;95945.53;4975357;28;20524;-58
2021/05/13 07:42:53;;;;;;;10.30;7.00;;;;;;;16.47;56.04;95944.03;4978758;28;20054;-59
2021/05/13 07:45:19;;;;;;;16.00;8.00;;;;;;;14.41;62.34;95952.94;4975032;28;20510;-61
2021/05/13 07:47:45;;;;;;;11.43;7.63;;;;;;;12.83;69.10;95954.84;4978972;28;20054;-59
2021/05/13 07:50:21;;;;;;;10.02;7.03;;;;;;;13.18;68.08;95951.16;4973205;28;20376;-58
2021/05/13 07:52:49;;;;;;;11.70;7.50;;;;;;;12.50;69.17;95951.44;4982463;28;20047;-59
2021/05/13 07:55:14;;;;;;;11.20;7.43;;;;;;;12.79;68.99;95954.88;4974776;28;20038;-64
2021/05/13 07:57:40;;;;;;;13.18;7.95;;;;;;;12.66;68.85;95958.44;4982973;28;20061;-58
2021/05/13 08:00:07;;;;;;;13.45;7.93;;;;;;;12.36;70.66;95955.00;4994100;28;20054;-56
2021/05/13 08:02:33;;;;;;;12.65;7.70;;;;;;;12.75;70.89;95961.59;4982197;28;20061;-60
2021/05/13 08:04:59;;;;;;;14.77;7.07;;;;;;;13.98;65.09;95959.63;4981991;28;20042;-55
2021/05/13 08:07:24;;;;;;;12.85;7.18;;;;;;;12.70;70.01;95957.25;4975950;28;20411;-62
2021/05/13 08:09:50;;;;;;;13.55;7.50;;;;;;;13.51;66.69;95951.75;4976777;28;20419;-59
2021/05/13 08:12:16;;;;;;;8.95;6.72;;;;;;;13.88;65.74;95957.75;4991276;28;20065;-58
2021/05/13 08:14:43;;;;;;;9.95;6.57;;;;;;;14.54;62.92;95951.97;4982629;28;20050;-56
2021/05/13 08:17:08;;;;;;;10.35;7.28;;;;;;;12.38;69.20;95946.38;4977341;28;20050;-58
2021/05/13 08:19:34;;;;;;;12.13;7.05;;;;;;;13.72;64.93;95948.06;4989869;28;20085;-64
2021/05/13 08:21:59;;;;;;;10.63;7.10;;;;;;;12.99;66.89;95946.91;4986300;28;20048;-60
2021/05/13 08:24:25;;;;;;;13.73;7.47;;;;;;;12.58;69.39;95943.97;4975331;28;20046;-56
2021/05/13 08:26:50;;;;;;;10.13;7.43;;;;;;;13.50;67.60;95949.41;4983684;28;20047;-55
2021/05/13 08:29:16;;;;;;;12.55;7.47;;;;;;;14.70;63.41;95951.44;4991811;28;20503;-59
2021/05/13 08:31:41;;;;;;;10.77;7.50;;;;;;;13.84;65.33;95943.25;4971054;28;20076;-59
2021/05/13 08:34:06;;;;;;;12.88;8.20;;;;;;;15.14;61.31;95942.63;4970690;28;20050;-66
2021/05/13 08:36:32;;;;;;;24.95;13.98;;;;;;;15.18;60.02;95943.34;4984476;28;20562;-61
2021/05/13 08:38:57;;;;;;;11.80;7.28;;;;;;;14.13;63.27;95939.03;5001073;28;20092;-58
2021/05/13 08:41:23;;;;;;;11.60;8.10;;;;;;;14.03;64.79;95930.88;4976318;28;20138;-55
2021/05/13 08:43:51;;;;;;;9.40;6.70;;;;;;;15.58;60.60;95933.31;4982002;28;20247;-58
2021/05/13 08:46:17;;;;;;;10.70;7.20;;;;;;;16.76;56.69;95926.88;4981945;28;20049;-57
2021/05/13 08:48:44;;;;;;;9.45;5.75;;;;;;;18.89;51.38;95926.94;4985066;28;20043;-58
2021/05/13 08:51:09;;;;;;;8.15;5.72;;;;;;;17.98;51.78;95921.41;4973942;28;20455;-60
2021/05/13 08:53:53;;;;;;;8.65;5.65;;;;;;;19.65;48.37;95916.31;4979589;28;20076;-56
2021/05/13 08:56:19;;;;;;;8.30;5.57;;;;;;;19.35;46.18;95918.44;4976930;28;20042;-58
2021/05/13 08:58:45;;;;;;;10.10;5.65;;;;;;;18.15;49.12;95922.19;4982265;28;20372;-58
2021/05/13 09:01:22;;;;;;;10.25;6.00;;;;;;;16.93;53.99;95917.47;4970023;28;20243;-58
2021/05/13 09:03:49;;;;;;;7.57;5.22;;;;;;;19.43;47.62;95922.56;4981641;28;20523;-60
2021/05/13 09:06:32;;;;;;;9.30;5.28;;;;;;;19.52;46.94;95921.09;4977526;28;20192;-58
2021/05/13 09:09:23;;;;;;;8.05;4.80;;;;;;;21.44;42.36;95905.69;4981858;28;20126;-58
2021/05/13 09:11:51;;;;;;;11.18;6.20;;;;;;;20.77;43.13;95908.56;4998479;28;20045;-59
2021/05/13 09:14:24;;;;;;;8.43;5.20;;;;;;;21.22;43.36;95908.53;4997629;28;20136;-62
2021/05/13 09:16:50;;;;;;;6.18;4.55;;;;;;;21.68;42.62;95906.75;5003097;28;20073;-62
2021/05/13 09:19:28;;;;;;;8.25;4.88;;;;;;;20.52;45.07;95900.34;4995831;28;20582;-61
2021/05/13 09:22:06;;;;;;;6.65;4.68;;;;;;;19.75;45.79;95892.97;4987714;28;20105;-63
2021/05/13 09:24:54;;;;;;;6.00;4.22;;;;;;;19.25;45.44;95895.34;5006576;28;20447;-64
2021/05/13 09:27:24;;;;;;;6.18;3.65;;;;;;;20.47;44.10;95885.00;4977661;28;20565;-62
2021/05/13 09:30:18;;;;;;;6.60;4.22;;;;;;;20.74;43.75;95880.88;4995410;28;20049;-63
2021/05/13 09:32:45;;;;;;;6.40;4.65;;;;;;;20.86;44.62;95882.03;5000273;28;20045;-60
2021/05/13 09:35:20;;;;;;;7.30;4.13;;;;;;;21.33;42.81;95881.03;4995108;28;20050;-60
2021/05/13 09:37:53;;;;;;;8.15;4.25;;;;;;;21.20;43.62;95878.34;5000590;28;20107;-63
2021/05/13 09:40:31;;;;;;;6.70;3.22;;;;;;;21.67;40.52;95880.09;4998016;28;20132;-63
2021/05/13 09:43:18;;;;;;;6.53;4.13;;;;;;;20.54;43.26;95879.16;4998630;28;20085;-63
2021/05/13 09:45:48;;;;;;;6.30;3.90;;;;;;;19.53;44.68;95876.22;4988312;28;20046;-62
2021/05/13 09:48:32;;;;;;;5.70;3.78;;;;;;;18.95;46.94;95873.66;4975496;28;20109;-62
2021/05/13 09:51:15;;;;;;;7.90;4.30;;;;;;;19.02;46.88;95870.69;4978086;28;20392;-60
2021/05/13 09:53:42;;;;;;;5.68;4.07;;;;;;;18.79;47.37;95869.72;4981673;28;20216;-64
2021/05/13 09:56:28;;;;;;;6.65;4.10;;;;;;;18.28;49.70;95870.34;4977556;28;20043;-61
2021/05/13 09:58:55;;;;;;;7.13;4.25;;;;;;;18.16;50.07;95871.09;4995396;28;20048;-60
2021/05/13 10:01:21;;;;;;;7.55;4.82;;;;;;;17.57;53.33;95878.47;4993627;28;20056;-64
2021/05/13 10:03:47;;;;;;;11.18;5.38;;;;;;;17.60;54.00;95868.53;4999694;28;20048;-63
2021/05/13 10:06:13;;;;;;;11.65;6.93;;;;;;;17.26;56.08;95869.75;4996020;28;20450;-61
2021/05/13 10:08:42;;;;;;;10.48;6.57;;;;;;;17.37;54.49;95865.50;5000869;28;20132;-61
2021/05/13 10:11:08;;;;;;;9.10;6.20;;;;;;;16.52;57.24;95870.91;4994613;28;20046;-61
2021/05/13 10:13:34;;;;;;;9.32;5.82;;;;;;;16.62;56.63;95862.41;5001411;28;20050;-62
2021/05/13 10:16:02;;;;;;;8.98;4.78;;;;;;;16.56;54.98;95875.16;5000426;28;20069;-62
2021/05/13 10:18:43;;;;;;;13.38;8.02;;;;;;;16.63;54.20;95863.94;4976731;28;20058;-62
2021/05/13 10:21:21;;;;;;;11.75;6.18;;;;;;;16.64;55.73;95870.28;4980003;28;20053;-60
2021/05/13 10:23:48;;;;;;;11.40;5.25;;;;;;;16.91;54.22;95866.56;4997502;28;20054;-63
2021/05/13 10:26:41;;;;;;;7.57;5.57;;;;;;;16.41;56.47;95862.84;4985596;28;20054;-62
2021/05/13 10:29:27;;;;;;;10.40;6.15;;;;;;;16.54;56.94;95865.72;4978489;28;20046;-59
2021/05/13 10:32:29;;;;;;;10.48;7.05;;;;;;;17.39;55.35;95862.31;4984345;28;20521;-61
2021/05/13 10:34:57;;;;;;;11.85;7.40;;;;;;;17.50;54.85;95873.13;4982067;28;20061;-60
2021/05/13 10:37:37;;;;;;;10.60;6.45;;;;;;;17.29;54.98;95861.34;4995416;28;20287;-61
2021/05/13 10:40:12;;;;;;;14.48;8.13;;;;;;;17.05;54.55;95863.50;4997908;28;20049;-58
2021/05/13 10:42:39;;;;;;;11.05;6.57;;;;;;;16.88;56.26;95865.44;4999406;28;20037;-63
2021/05/13 10:45:43;;;;;;;15.48;7.75;;;;;;;17.25;54.68;95865.41;4995913;28;20121;-62
2021/05/13 10:48:38;;;;;;;9.82;6.28;;;;;;;17.12;55.14;95854.25;4964218;28;20065;-62
2021/05/13 10:51:07;;;;;;;9.77;6.10;;;;;;;16.93;56.26;95866.94;4978993;28;20038;-58
2021/05/13 10:53:48;;;;;;;10.10;6.30;;;;;;;17.17;54.97;95862.81;4995153;28;20045;-58
2021/05/13 10:56:25;;;;;;;12.40;6.28;;;;;;;17.27;54.25;95862.97;5005692;28;20050;-60
2021/05/13 10:59:09;;;;;;;12.90;6.60;;;;;;;17.25;55.43;95860.66;5000779;28;20037;-62
2021/05/13 11:01:41;;;;;;;10.40;5.70;;;;;;;16.98;54.66;95867.19;4985106;28;20458;-61
2021/05/13 11:04:26;;;;;;;8.95;5.72;;;;;;;16.63;56.26;95860.41;4975778;28;20050;-62
2021/05/13 11:06:59;;;;;;;9.80;5.50;;;;;;;16.67;55.60;95857.56;4987866;28;20076;-60
2021/05/13 11:09:46;;;;;;;10.70;6.45;;;;;;;17.18;54.21;95861.59;4975050;28;20049;-63
2021/05/13 11:12:14;;;;;;;13.13;7.78;;;;;;;16.46;56.28;95859.56;4973875;28;20046;-61
2021/05/13 11:15:10;;;;;;;15.48;8.65;;;;;;;16.22;57.87;95858.84;4980628;28;20137;-60
2021/05/13 11:20:20;;;;;;;15.77;8.43;;;;;;;15.83;58.42;95857.63;4995000;28;20038;-62
2021/05/13 11:22:59;;;;;;;16.65;8.32;;;;;;;15.81;58.97;95846.19;4999505;28;20065;-62
2021/05/13 11:25:33;;;;;;;19.70;9.32;;;;;;;16.27;58.19;95843.78;4976554;28;20542;-62
2021/05/13 11:27:59;;;;;;;9.50;6.47;;;;;;;16.41;56.87;95841.50;4983823;28;20088;-63
2021/05/13 11:30:27;;;;;;;15.48;6.80;;;;;;;16.43;55.63;95839.09;4978682;28;20042;-62
2021/05/13 11:32:53;;;;;;;13.15;7.35;;;;;;;16.50;57.04;95837.41;4984425;28;20387;-62
2021/05/13 11:35:20;;;;;;;13.80;7.65;;;;;;;16.61;56.36;95827.66;4979588;28;20045;-62
2021/05/13 11:37:50;;;;;;;8.85;6.22;;;;;;;16.50;57.13;95832.63;4984223;28;20510;-63
2021/05/13 11:40:18;;;;;;;;;;;;;;;17.10;56.13;95834.53;4983022;28;20038;-62